Altnaharra, United Kingdom

7:40 AM BST on August 01, 2015 (GMT +0100)
ISUTHERL6 | | Change Station
CLOSE
Current Station
Personal Weather Station
Location: Kinbrace, Sutherland
Elevation: 364 ft
Nearby Weather Stations

Elev 364 ft 58.25 °N, 3.96 °W | Updated 4 seconds ago

Clear
Clear
50.7 °F
Feels Like 50.7 °F
N
0.0
Wind Variable Wind from North
Gusts 0.0 mph

Today
High -- | Low -- °F
--% Chance of Precip.
Yesterday
High -- | Low -- °F
Precip. -- in
5:08 AM 9:38 PM
Full, 99% visible
Pressure 29.71 in
Visibility 6.2 miles
Clouds
Dew Point 50 °F
Humidity 98%
Rainfall 0.05 in
Snow Depth Not available.
UV Not available.
Pollen Not available.
Air Quality Not available.
Flu Activity Not available.
METAR EGPC 010620Z AUTO 00000KT 9999 NCD 11/10 Q1006

More Conditions Fewer Conditions

Pressure 29.71 in
Visibility 6.2 miles
Clouds
Dew Point 50 °F
Humidity 98%
Rainfall 0.05 in
Snow Depth Not available.
UV Not available.
Pollen Not available.
Air Quality Not available.
Flu Activity Not available.
METAR EGPC 010620Z AUTO 00000KT 9999 NCD 11/10 Q1006

More Conditions Fewer Conditions

10-Day Weather Forecast

×

Almanac

Astronomy

Aug. 01, 2015 Rise Set
Actual Time
Civil Twilight
Nautical Twilight
Astronomical Twilight
Moon
Length of Visible Light
Length of Day
Tomorrow will be .
, % of the Moon is Illuminated

Today's Extremes

Country Highs Country Lows

Community

WunderPhotos

Upload Photos

1,842,891 photos uploaded!

WunderBlogs® & News

Nearby

Air Quality

  Air Quality AQ Index Pollutant
Not available.

Snow Depth

Station Depth Elevation

Earthquake Activity

City Distance Mag. Time & Date
Minimum magnitude displayed is 2.5.

Coastal Water Temperatures

Place Temperature

Stations

Nearby Weather Stations

Station Location Temp. Windchill Dew Point Humidity Wind Precip. Elev Updated Type